createdAt,value
2022-12-11T00:01:24.050Z,94767.91
2022-12-11T00:03:51.168Z,94815.25
2022-12-11T00:06:20.324Z,94794.25
2022-12-11T00:08:47.789Z,94775.44
2022-12-11T00:11:16.502Z,94785.44
2022-12-11T00:13:43.474Z,94784.09
2022-12-11T00:16:10.276Z,94773.66
2022-12-11T00:18:36.853Z,94781.22
2022-12-11T00:21:07.820Z,94770.50
2022-12-11T00:23:35.818Z,94768.19
2022-12-11T00:26:07.121Z,94762.91
2022-12-11T00:28:33.757Z,94751.97
2022-12-11T00:31:04.123Z,94778.16
2022-12-11T00:33:30.678Z,94747.31
2022-12-11T00:35:57.145Z,94786.50
2022-12-11T00:38:24.080Z,94781.81
2022-12-11T00:40:50.749Z,94774.53
2022-12-11T00:43:17.479Z,94801.75
2022-12-11T00:45:45.854Z,94777.38
2022-12-11T00:48:13.279Z,94760.66
2022-12-11T00:50:40.655Z,94773.97
2022-12-11T00:53:07.826Z,94773.00
2022-12-11T00:55:39.829Z,94784.72
2022-12-11T00:58:06.904Z,94770.88
2022-12-11T01:00:33.524Z,94774.78
2022-12-11T01:03:00.120Z,94802.78
2022-12-11T01:05:26.994Z,94786.31
2022-12-11T01:07:53.537Z,94803.91
2022-12-11T01:10:26.127Z,94809.66
2022-12-11T01:13:11.686Z,94786.66
2022-12-11T01:15:44.233Z,94819.63
2022-12-11T01:18:15.449Z,94800.75
2022-12-11T01:20:43.145Z,94782.72
2022-12-11T01:23:13.031Z,94785.66
2022-12-11T01:25:39.995Z,94784.00
2022-12-11T01:28:06.997Z,94791.91
2022-12-11T01:30:34.145Z,94790.31
2022-12-11T01:33:01.058Z,94767.31
2022-12-11T01:35:28.425Z,94788.22
2022-12-11T01:37:54.989Z,94800.03
2022-12-11T01:40:22.168Z,94790.81
2022-12-11T01:42:49.241Z,94770.97
2022-12-11T01:45:15.788Z,94805.97
2022-12-11T01:47:42.355Z,94792.44
2022-12-11T01:50:08.957Z,94796.94
2022-12-11T01:52:36.390Z,94774.69
2022-12-11T01:55:03.952Z,94790.63
2022-12-11T01:57:30.510Z,94794.81
2022-12-11T01:59:57.205Z,94796.69
2022-12-11T02:02:30.873Z,94782.31
2022-12-11T02:04:58.274Z,94811.81
2022-12-11T02:07:24.852Z,94786.72
2022-12-11T02:09:51.347Z,94824.88
2022-12-11T02:12:36.382Z,94825.41
2022-12-11T02:15:32.527Z,94795.66
2022-12-11T02:18:17.304Z,94826.78
2022-12-11T02:21:02.664Z,94809.81
2022-12-11T02:24:00.361Z,94808.19
2022-12-11T02:26:35.831Z,94837.00
2022-12-11T02:29:08.077Z,94826.50
2022-12-11T02:31:40.698Z,94811.38
2022-12-11T02:34:30.671Z,94820.78
2022-12-11T02:37:03.827Z,94829.47
2022-12-11T02:39:32.143Z,94845.41
2022-12-11T02:41:59.042Z,94828.41
2022-12-11T02:44:29.435Z,94845.41
2022-12-11T02:46:56.229Z,94804.63
2022-12-11T02:49:24.364Z,94843.09
2022-12-11T02:51:52.521Z,94855.38
2022-12-11T02:54:28.132Z,94853.50
2022-12-11T02:57:04.796Z,94852.19
2022-12-11T02:59:35.821Z,94856.69
2022-12-11T03:02:04.207Z,94872.34
2022-12-11T03:04:31.771Z,94825.28
2022-12-11T03:07:02.796Z,94858.53
2022-12-11T03:09:29.307Z,94830.78
2022-12-11T03:11:55.785Z,94841.75
2022-12-11T03:14:22.236Z,94867.91
2022-12-11T03:17:14.509Z,94853.53
2022-12-11T03:19:47.109Z,94857.47
2022-12-11T03:22:22.110Z,94843.88
2022-12-11T03:25:12.788Z,94851.22
2022-12-11T03:27:49.502Z,94845.72
2022-12-11T03:30:21.001Z,94867.16
2022-12-11T03:32:58.174Z,94850.94
2022-12-11T03:35:56.619Z,94865.81
2022-12-11T03:38:33.393Z,94872.44
2022-12-11T03:41:03.277Z,94887.84
2022-12-11T03:43:32.088Z,94872.19
2022-12-11T03:46:00.606Z,94881.34
2022-12-11T03:48:31.157Z,94868.22
2022-12-11T03:50:59.343Z,94862.25
2022-12-11T03:53:27.190Z,94860.19
2022-12-11T03:55:56.127Z,94880.56
2022-12-11T03:58:22.636Z,94875.38
2022-12-11T04:00:49.100Z,94878.97
2022-12-11T04:03:17.755Z,94894.66
2022-12-11T04:05:56.211Z,94855.75
2022-12-11T04:08:23.996Z,94883.72
2022-12-11T04:11:14.408Z,94877.44
2022-12-11T04:13:42.219Z,94891.81
2022-12-11T04:16:12.093Z,94890.28
2022-12-11T04:18:57.333Z,94909.59
2022-12-11T04:21:42.358Z,94908.50
2022-12-11T04:24:17.734Z,94891.28
2022-12-11T04:26:46.858Z,94894.19
2022-12-11T04:29:14.146Z,94875.09
2022-12-11T04:31:40.722Z,94919.56
2022-12-11T04:34:07.197Z,94918.78
2022-12-11T04:36:33.671Z,94894.47
2022-12-11T04:39:00.146Z,94913.53
2022-12-11T04:41:26.711Z,94904.16
2022-12-11T04:43:53.161Z,94896.81
2022-12-11T04:46:22.101Z,94901.00
2022-12-11T04:48:55.455Z,94898.94
2022-12-11T04:51:24.256Z,94893.19
2022-12-11T04:53:50.740Z,94894.75
2022-12-11T04:56:17.216Z,94866.00
2022-12-11T04:58:44.783Z,94890.03
2022-12-11T05:01:13.889Z,94895.81
2022-12-11T05:03:41.240Z,94881.44
2022-12-11T05:06:09.382Z,94890.56
2022-12-11T05:08:38.454Z,94878.03
2022-12-11T05:11:07.202Z,94893.22
2022-12-11T05:13:34.140Z,94882.75
2022-12-11T05:16:00.631Z,94873.59
2022-12-11T05:18:27.119Z,94879.34
2022-12-11T05:21:01.207Z,94884.84
2022-12-11T05:23:28.095Z,94893.22
2022-12-11T05:25:55.794Z,94886.69
2022-12-11T05:28:24.909Z,94890.34
2022-12-11T05:31:02.749Z,94898.44
2022-12-11T05:33:30.124Z,94900.53
2022-12-11T05:35:56.556Z,94911.28
2022-12-11T05:38:23.297Z,94884.63
2022-12-11T05:41:04.675Z,94896.91
2022-12-11T05:43:33.407Z,94911.53
2022-12-11T05:46:08.183Z,94891.13
2022-12-11T05:48:35.121Z,94908.91
2022-12-11T05:51:02.482Z,94898.69
2022-12-11T05:53:29.617Z,94883.56
2022-12-11T05:56:02.291Z,94903.94
2022-12-11T05:58:28.913Z,94894.31
2022-12-11T06:00:55.366Z,94876.00
2022-12-11T06:03:21.900Z,94885.41
2022-12-11T06:05:48.403Z,94899.53
2022-12-11T06:08:15.065Z,94887.25
2022-12-11T06:10:49.239Z,94893.78
2022-12-11T06:13:16.686Z,94897.72
2022-12-11T06:15:43.241Z,94905.28
2022-12-11T06:18:09.828Z,94888.56
2022-12-11T06:20:37.074Z,94916.25
2022-12-11T06:23:03.736Z,94912.09
2022-12-11T06:25:30.787Z,94891.44
2022-12-11T06:27:57.529Z,94915.22
2022-12-11T06:30:24.149Z,94916.78
2022-12-11T06:33:06.117Z,94911.56
2022-12-11T06:35:35.134Z,94890.44
2022-12-11T06:38:06.636Z,94924.38
2022-12-11T06:40:33.119Z,94914.72
2022-12-11T06:42:59.546Z,94929.84
2022-12-11T06:45:25.980Z,94927.78
2022-12-11T06:47:52.460Z,94913.16
2022-12-11T06:50:18.979Z,94925.69
2022-12-11T06:52:45.371Z,94926.22
2022-12-11T06:55:12.109Z,94926.22
2022-12-11T06:57:38.741Z,94954.94
2022-12-11T07:00:05.844Z,94953.91
2022-12-11T07:02:32.489Z,94945.53
2022-12-11T07:04:59.143Z,94941.91
2022-12-11T07:07:25.625Z,94943.19
2022-12-11T07:09:52.085Z,94945.53
2022-12-11T07:12:18.569Z,94962.50
2022-12-11T07:14:45.560Z,94936.13
2022-12-11T07:17:12.001Z,94947.63
2022-12-11T07:19:38.539Z,94937.16
2022-12-11T07:22:04.988Z,94944.75
2022-12-11T07:24:31.437Z,94951.28
2022-12-11T07:26:58.200Z,94970.88
2022-12-11T07:29:24.639Z,94952.59
2022-12-11T07:31:51.226Z,94965.13
2022-12-11T07:34:17.803Z,94946.31
2022-12-11T07:36:44.429Z,94986.31
2022-12-11T07:39:12.414Z,94971.66
2022-12-11T07:41:39.907Z,94963.31
2022-12-11T07:44:06.333Z,94966.44
2022-12-11T07:46:33.575Z,94966.97
2022-12-11T07:49:01.806Z,94970.88
2022-12-11T07:51:31.306Z,94964.88
2022-12-11T07:54:06.512Z,94997.25
2022-12-11T07:56:34.087Z,94966.44
2022-12-11T07:59:02.334Z,94954.44
2022-12-11T08:01:30.821Z,94974.28
2022-12-11T08:03:57.789Z,94977.41
2022-12-11T08:06:29.739Z,94981.06
2022-12-11T08:09:01.128Z,95001.19
2022-12-11T08:11:28.973Z,94975.56
2022-12-11T08:13:55.545Z,94970.63
2022-12-11T08:16:22.973Z,94983.41
2022-12-11T08:18:49.591Z,94956.50
2022-12-11T08:21:22.095Z,94979.50
2022-12-11T08:23:49.570Z,94973.25
2022-12-11T08:26:22.253Z,94968.28
2022-12-11T08:28:48.917Z,94982.09
2022-12-11T08:31:16.766Z,94989.94
2022-12-11T08:33:44.343Z,95002.47
2022-12-11T08:36:14.459Z,94994.66
2022-12-11T08:38:41.242Z,95004.84
2022-12-11T08:41:12.476Z,95016.06
2022-12-11T08:43:39.779Z,95022.38
2022-12-11T08:46:07.243Z,94992.56
2022-12-11T08:48:35.386Z,94997.78
2022-12-11T08:51:03.222Z,95004.06
2022-12-11T08:53:30.441Z,95010.31
2022-12-11T08:56:09.424Z,95008.75
2022-12-11T08:58:36.039Z,95013.47
2022-12-11T09:01:14.152Z,95011.38
2022-12-11T09:03:41.500Z,95042.47
2022-12-11T09:06:13.247Z,95038.28
2022-12-11T09:08:40.256Z,95066.53
2022-12-11T09:11:10.026Z,95044.81
2022-12-11T09:13:37.150Z,95043.78
2022-12-11T09:16:06.832Z,95045.34
2022-12-11T09:18:33.549Z,95032.81
2022-12-11T09:21:14.285Z,95039.06
2022-12-11T09:23:41.574Z,95044.56
2022-12-11T09:26:11.110Z,95039.06
2022-12-11T09:28:41.365Z,95046.66
2022-12-11T09:31:34.973Z,95039.59
2022-12-11T09:36:52.104Z,95037.22
2022-12-11T09:39:19.078Z,95037.22
2022-12-11T09:42:07.275Z,95058.13
2022-12-11T09:44:43.470Z,95044.81
2022-12-11T09:47:30.874Z,95051.09
2022-12-11T09:50:10.633Z,95016.56
2022-12-11T09:53:05.394Z,95026.50
2022-12-11T09:55:47.327Z,95024.94
2022-12-11T09:58:30.118Z,95028.59
2022-12-11T10:01:35.295Z,95020.97
2022-12-11T10:04:38.814Z,95024.91
2022-12-11T10:07:24.122Z,95026.50
2022-12-11T10:10:07.854Z,95046.34
2022-12-11T10:12:55.008Z,95027.00
2022-12-11T10:15:36.885Z,95029.09
2022-12-11T10:18:09.941Z,95014.41
2022-12-11T10:20:40.223Z,95001.88
2022-12-11T10:23:09.747Z,95019.16
2022-12-11T10:25:42.062Z,95011.78
2022-12-11T10:28:17.922Z,95022.25
2022-12-11T10:31:09.848Z,95012.59
2022-12-11T10:33:54.044Z,95015.47
2022-12-11T10:36:34.771Z,94988.22
2022-12-11T10:39:01.648Z,95002.88
2022-12-11T10:41:41.801Z,95021.44
2022-12-11T10:44:23.077Z,95004.19
2022-12-11T10:47:11.315Z,95006.28
2022-12-11T10:49:39.750Z,95014.34
2022-12-11T10:52:12.453Z,95010.97
2022-12-11T10:54:45.671Z,95018.28
2022-12-11T10:57:13.967Z,95021.19
2022-12-11T10:59:43.458Z,95024.28
2022-12-11T11:02:26.672Z,95013.81
2022-12-11T11:04:55.728Z,95015.13
2022-12-11T11:07:25.392Z,95023.78
2022-12-11T11:10:11.971Z,95009.63
2022-12-11T11:12:39.444Z,95011.16
2022-12-11T11:15:13.077Z,95013.53
2022-12-11T11:17:55.135Z,95013.78
2022-12-11T11:20:25.743Z,95032.91
2022-12-11T11:22:59.082Z,95013.75
2022-12-11T11:25:28.638Z,95009.03
2022-12-11T11:27:58.080Z,95028.44
2022-12-11T11:30:27.543Z,95006.16
2022-12-11T11:33:05.630Z,95019.50
2022-12-11T11:35:32.920Z,95008.50
2022-12-11T11:38:12.824Z,95001.19
2022-12-11T11:41:07.648Z,95008.00
2022-12-11T11:43:42.793Z,95015.31
2022-12-11T11:46:22.094Z,95017.91
2022-12-11T11:48:48.601Z,95008.47
2022-12-11T11:51:27.043Z,95015.56
2022-12-11T11:53:58.286Z,95012.16
2022-12-11T11:56:34.937Z,95012.91
2022-12-11T11:59:23.213Z,94980.72
2022-12-11T12:01:51.776Z,94991.94
2022-12-11T12:04:18.263Z,95002.16
2022-12-11T12:06:57.879Z,94963.94
2022-12-11T12:09:52.211Z,94991.69
2022-12-11T12:12:26.601Z,94987.50
2022-12-11T12:14:57.827Z,94970.16
2022-12-11T12:17:55.095Z,94990.59
2022-12-11T12:20:41.168Z,94984.28
2022-12-11T12:23:19.416Z,95002.13
2022-12-11T12:25:55.903Z,94983.78
2022-12-11T12:28:34.325Z,95000.78
2022-12-11T12:31:25.274Z,94995.53
2022-12-11T12:34:14.350Z,94999.97
2022-12-11T12:36:46.510Z,95015.16
2022-12-11T12:39:44.471Z,95001.56
2022-12-11T12:42:28.708Z,94992.34
2022-12-11T12:45:16.307Z,94985.28
2022-12-11T12:47:50.341Z,94989.38
2022-12-11T12:50:26.402Z,95008.03
2022-12-11T12:52:55.220Z,94994.97
2022-12-11T12:55:25.081Z,95004.66
2022-12-11T12:57:57.712Z,95004.38
2022-12-11T13:00:39.509Z,95008.31
2022-12-11T13:03:21.166Z,95003.06
2022-12-11T13:06:04.280Z,95013.81
2022-12-11T13:08:50.093Z,95002.50
2022-12-11T13:11:19.864Z,95004.09
2022-12-11T13:14:02.528Z,95007.50
2022-12-11T13:16:41.440Z,95000.41
2022-12-11T13:19:25.996Z,95002.28
2022-12-11T13:22:18.819Z,95006.75
2022-12-11T13:24:52.125Z,95007.78
2022-12-11T13:27:38.644Z,94999.94
2022-12-11T13:30:21.218Z,95004.91
2022-12-11T13:33:14.107Z,95005.66
2022-12-11T13:35:40.737Z,95006.75
2022-12-11T13:38:16.955Z,95001.19
2022-12-11T13:40:45.364Z,95013.25
2022-12-11T13:43:20.221Z,95013.00
2022-12-11T13:45:56.068Z,95017.47
2022-12-11T13:48:47.716Z,95021.41
2022-12-11T13:51:21.824Z,95014.84
2022-12-11T13:53:48.662Z,95019.28
2022-12-11T13:56:22.505Z,95022.41
2022-12-11T13:58:49.248Z,95027.16
2022-12-11T14:01:17.670Z,95032.66
2022-12-11T14:04:09.508Z,95038.38
2022-12-11T14:06:38.894Z,95038.41
2022-12-11T14:09:06.710Z,95028.97
2022-12-11T14:11:40.158Z,95037.38
2022-12-11T14:14:16.134Z,95046.03
2022-12-11T14:16:42.671Z,95049.72
2022-12-11T14:19:10.916Z,95048.72
2022-12-11T14:21:37.412Z,95040.03
2022-12-11T14:24:06.487Z,95049.22
2022-12-11T14:26:37.790Z,95051.59
2022-12-11T14:29:05.388Z,95060.19
2022-12-11T14:31:39.588Z,95060.22
2022-12-11T14:34:11.981Z,95064.94
2022-12-11T14:36:41.231Z,95073.84
2022-12-11T14:39:18.597Z,95073.09
2022-12-11T14:42:09.012Z,95074.91
2022-12-11T14:44:48.710Z,95074.63
2022-12-11T14:47:42.647Z,95073.34
2022-12-11T14:50:21.171Z,95072.34
2022-12-11T14:52:55.491Z,95082.50
2022-12-11T14:55:32.739Z,95072.56
2022-12-11T14:58:02.852Z,95078.34
2022-12-11T15:00:31.183Z,95070.78
2022-12-11T15:03:03.879Z,95078.66
2022-12-11T15:05:37.153Z,95085.44
2022-12-11T15:08:09.910Z,95087.81
2022-12-11T15:10:41.083Z,95083.38
2022-12-11T15:13:09.283Z,95089.97
2022-12-11T15:15:46.215Z,95100.22
2022-12-11T15:18:24.851Z,95108.53
2022-12-11T15:20:58.673Z,95103.63
2022-12-11T15:23:25.760Z,95106.78
2022-12-11T15:25:55.600Z,95107.56
2022-12-11T15:28:32.181Z,95105.19
2022-12-11T15:31:05.113Z,95110.94
2022-12-11T15:33:34.528Z,95104.41
2022-12-11T15:36:05.907Z,95113.31
2022-12-11T15:38:35.680Z,95102.56
2022-12-11T15:41:02.828Z,95105.97
2022-12-11T15:43:33.800Z,95113.03
2022-12-11T15:46:02.605Z,95118.25
2022-12-11T15:48:29.184Z,95108.88
2022-12-11T15:50:55.880Z,95118.03
2022-12-11T15:53:22.585Z,95117.75
2022-12-11T15:55:49.404Z,95127.72
2022-12-11T15:58:19.535Z,95131.88
2022-12-11T16:00:46.046Z,95136.88
2022-12-11T16:03:14.550Z,95147.34
2022-12-11T16:05:42.565Z,95143.91
2022-12-11T16:08:15.078Z,95142.09
2022-12-11T16:10:43.296Z,95155.97
2022-12-11T16:13:10.652Z,95147.34
2022-12-11T16:15:44.546Z,95153.06
2022-12-11T16:18:13.543Z,95145.75
2022-12-11T16:20:41.056Z,95157.00
2022-12-11T16:23:07.814Z,95159.09
2022-12-11T16:25:34.372Z,95151.50
2022-12-11T16:28:01.626Z,95158.81
2022-12-11T16:30:29.423Z,95166.16
2022-12-11T16:32:56.255Z,95160.41
2022-12-11T16:35:22.809Z,95164.84
2022-12-11T16:37:53.912Z,95160.94
2022-12-11T16:40:21.399Z,95157.25
2022-12-11T16:42:49.278Z,95164.56
2022-12-11T16:45:22.058Z,95163.56
2022-12-11T16:47:49.449Z,95167.72
2022-12-11T16:50:17.450Z,95155.69
2022-12-11T16:52:44.450Z,95155.94
2022-12-11T16:55:13.179Z,95152.78
2022-12-11T16:57:40.579Z,95158.56
2022-12-11T17:00:09.284Z,95156.19
2022-12-11T17:02:36.540Z,95167.16
2022-12-11T17:05:03.324Z,95167.97
2022-12-11T17:07:31.704Z,95161.97
2022-12-11T17:09:58.231Z,95164.31
2022-12-11T17:12:27.673Z,95156.16
2022-12-11T17:14:55.971Z,95167.69
2022-12-11T17:17:22.463Z,95165.88
2022-12-11T17:19:49.398Z,95177.41
2022-12-11T17:22:15.866Z,95156.19
2022-12-11T17:24:42.365Z,95158.00
2022-12-11T17:27:08.910Z,95159.31
2022-12-11T17:29:35.424Z,95149.38
2022-12-11T17:32:03.293Z,95147.03
2022-12-11T17:34:36.136Z,95160.91
2022-12-11T17:37:04.733Z,95146.53
2022-12-11T17:39:31.361Z,95157.22
2022-12-11T17:41:57.890Z,95153.06
2022-12-11T17:44:26.514Z,95152.00
2022-12-11T17:46:53.252Z,95156.72
2022-12-11T17:49:19.904Z,95152.78
2022-12-11T17:51:46.501Z,95157.75
2022-12-11T17:54:13.006Z,95154.59
2022-12-11T17:56:40.493Z,95153.56
2022-12-11T17:59:07.143Z,95160.09
2022-12-11T18:01:33.885Z,95160.63
2022-12-11T18:04:01.798Z,95154.09
2022-12-11T18:06:29.284Z,95160.09
2022-12-11T18:08:56.288Z,95162.19
2022-12-11T18:11:23.871Z,95165.84
2022-12-11T18:13:51.831Z,95164.28
2022-12-11T18:16:25.883Z,95168.97
2022-12-11T18:18:52.959Z,95154.59
2022-12-11T18:21:25.479Z,95157.47
2022-12-11T18:23:52.411Z,95154.59
2022-12-11T18:26:19.827Z,95158.00
2022-12-11T18:28:47.734Z,95169.50
2022-12-11T18:31:14.426Z,95165.06
2022-12-11T18:33:43.201Z,95158.28
2022-12-11T18:36:10.150Z,95171.34
2022-12-11T18:38:36.570Z,95164.28
2022-12-11T18:41:04.428Z,95162.44
2022-12-11T18:43:30.827Z,95165.06
2022-12-11T18:45:57.353Z,95160.09
2022-12-11T18:48:23.825Z,95178.13
2022-12-11T18:50:51.439Z,95164.00
2022-12-11T18:53:18.813Z,95177.59
2022-12-11T18:55:47.219Z,95171.34
2022-12-11T18:58:15.905Z,95170.28
2022-12-11T19:00:43.502Z,95188.06
2022-12-11T19:03:11.947Z,95193.28
2022-12-11T19:05:42.262Z,95190.94
2022-12-11T19:08:09.889Z,95199.00
2022-12-11T19:10:42.620Z,95215.22
2022-12-11T19:13:09.194Z,95210.50
2022-12-11T19:15:39.578Z,95218.84
2022-12-11T19:18:06.432Z,95212.31
2022-12-11T19:21:03.160Z,95212.56
2022-12-11T19:23:25.735Z,95219.38
2022-12-11T19:25:52.266Z,95221.72
2022-12-11T19:28:18.887Z,95226.69
2022-12-11T19:30:47.422Z,95229.28
2022-12-11T19:33:15.129Z,95228.97
2022-12-11T19:35:42.643Z,95244.44
2022-12-11T19:38:09.479Z,95251.22
2022-12-11T19:40:44.279Z,95256.94
2022-12-11T19:43:13.955Z,95250.16
2022-12-11T19:45:43.459Z,95265.03
2022-12-11T19:48:22.813Z,95267.34
2022-12-11T19:50:56.628Z,95275.72
2022-12-11T19:56:46.230Z,95283.72
2022-12-11T19:59:32.735Z,95273.56
2022-12-11T20:02:55.254Z,95280.38
2022-12-11T20:07:02.381Z,95279.34
2022-12-11T20:10:01.769Z,95278.75
2022-12-11T20:13:32.421Z,95276.91
2022-12-11T20:16:33.314Z,95281.38
2022-12-11T20:19:23.449Z,95278.84
2022-12-11T20:23:07.813Z,95275.47
2022-12-11T20:25:34.480Z,95275.97
2022-12-11T20:28:01.083Z,95263.41
2022-12-11T20:30:31.683Z,95262.63
2022-12-11T20:32:58.539Z,95275.84
2022-12-11T20:35:58.430Z,95269.34
2022-12-11T20:38:15.351Z,95269.94
2022-12-11T20:40:46.331Z,95279.38
2022-12-11T20:43:13.029Z,95289.34
2022-12-11T20:45:42.009Z,95290.81
2022-12-11T20:48:10.915Z,95274.13
2022-12-11T20:51:03.185Z,95271.78
2022-12-11T20:54:37.639Z,95283.84
2022-12-11T20:57:55.117Z,95273.09
2022-12-11T21:03:34.509Z,95273.38
2022-12-11T21:06:04.349Z,95270.00
2022-12-11T21:08:31.101Z,95274.69
2022-12-11T21:10:57.730Z,95276.25
2022-12-11T21:13:24.503Z,95279.63
2022-12-11T21:16:05.967Z,95274.38
2022-12-11T21:18:52.962Z,95285.09
2022-12-11T21:24:03.592Z,95276.69
2022-12-11T21:26:30.087Z,95276.78
2022-12-11T21:28:59.017Z,95283.31
2022-12-11T21:31:43.610Z,95284.63
2022-12-11T21:34:23.567Z,95276.00
2022-12-11T21:36:57.330Z,95275.22
2022-12-11T21:39:25.648Z,95289.53
2022-12-11T21:41:52.518Z,95290.63
2022-12-11T21:47:10.259Z,95282.50
2022-12-11T21:49:37.539Z,95276.78
2022-12-11T21:52:04.693Z,95281.97
2022-12-11T21:54:31.398Z,95285.59
2022-12-11T21:56:58.242Z,95291.13
2022-12-11T21:59:24.881Z,95298.44
2022-12-11T22:01:51.481Z,95300.75
2022-12-11T22:07:20.185Z,95297.25
2022-12-11T22:09:46.671Z,95300.59
2022-12-11T22:12:22.654Z,95295.88
2022-12-11T22:14:49.465Z,95308.88
2022-12-11T22:17:18.074Z,95301.09
2022-12-11T22:19:45.395Z,95310.41
2022-12-11T22:22:13.523Z,95315.16
2022-12-11T22:24:41.037Z,95312.72
2022-12-11T22:27:07.552Z,95321.34
2022-12-11T22:29:34.812Z,95308.66
2022-12-11T22:32:01.709Z,95305.63
2022-12-11T22:34:28.164Z,95306.66
2022-12-11T22:36:54.695Z,95311.75
2022-12-11T22:39:21.132Z,95323.00
2022-12-11T22:41:47.579Z,95317.31
2022-12-11T22:44:16.478Z,95325.47
2022-12-11T22:46:46.827Z,95328.16
2022-12-11T22:49:16.448Z,95340.06
2022-12-11T22:51:42.995Z,95327.09
2022-12-11T22:54:09.596Z,95329.81
2022-12-11T22:56:36.164Z,95336.13
2022-12-11T22:59:02.713Z,95341.78
2022-12-11T23:01:29.315Z,95337.41
2022-12-11T23:03:55.847Z,95338.19
2022-12-11T23:06:24.738Z,95346.34
2022-12-11T23:08:52.585Z,95343.34
2022-12-11T23:11:28.162Z,95341.84
2022-12-11T23:13:55.520Z,95341.91
2022-12-11T23:16:23.809Z,95337.06
2022-12-11T23:18:50.701Z,95345.75
2022-12-11T23:21:17.190Z,95345.84
2022-12-11T23:23:43.782Z,95339.19
2022-12-11T23:26:12.945Z,95348.97
2022-12-11T23:28:40.502Z,95339.69
2022-12-11T23:31:08.178Z,95341.25
2022-12-11T23:33:34.792Z,95348.13
2022-12-11T23:36:01.299Z,95354.13
2022-12-11T23:38:27.792Z,95353.13
2022-12-11T23:40:55.164Z,95339.81
2022-12-11T23:43:22.259Z,95350.03
2022-12-11T23:45:48.924Z,95345.69
2022-12-11T23:48:15.555Z,95347.50
2022-12-11T23:50:43.770Z,95351.59
2022-12-11T23:53:10.841Z,95350.81
2022-12-11T23:55:42.437Z,95344.78
2022-12-11T23:58:10.575Z,95359.28
